createdAt,value
2024-02-12T00:00:02.766Z,0.00
2024-02-12T00:01:02.857Z,0.00
2024-02-12T00:02:02.873Z,0.00
2024-02-12T00:03:02.774Z,0.00
2024-02-12T00:04:02.734Z,0.00
2024-02-12T00:05:02.918Z,0.00
2024-02-12T00:06:02.798Z,0.00
2024-02-12T00:07:02.663Z,0.00
2024-02-12T00:08:02.855Z,0.00
2024-02-12T00:09:02.710Z,0.00
2024-02-12T00:10:02.651Z,0.00
2024-02-12T00:11:02.688Z,0.00
2024-02-12T00:12:02.604Z,0.00
2024-02-12T00:13:02.623Z,0.00
2024-02-12T00:14:02.619Z,0.00
2024-02-12T00:15:02.578Z,0.00
2024-02-12T00:16:02.548Z,0.00
2024-02-12T00:17:02.645Z,0.00
2024-02-12T00:18:02.741Z,0.00
2024-02-12T00:19:02.595Z,0.00
2024-02-12T00:20:02.630Z,0.00
2024-02-12T00:21:02.568Z,0.00
2024-02-12T00:22:02.485Z,0.00
2024-02-12T00:23:04.628Z,0.00
2024-02-12T00:24:02.476Z,0.00
2024-02-12T00:25:02.468Z,0.00
2024-02-12T00:26:02.604Z,0.00
2024-02-12T00:27:02.425Z,0.00
2024-02-12T00:28:02.473Z,0.00
2024-02-12T00:29:02.548Z,0.00
2024-02-12T00:30:02.441Z,0.00
2024-02-12T00:31:02.435Z,0.00
2024-02-12T00:32:02.468Z,0.00
2024-02-12T00:33:02.433Z,0.00
2024-02-12T00:34:02.608Z,0.00
2024-02-12T00:35:02.478Z,0.00
2024-02-12T00:36:02.373Z,0.00
2024-02-12T00:37:02.339Z,0.00
2024-02-12T00:38:02.471Z,0.00
2024-02-12T00:39:02.301Z,0.00
2024-02-12T00:40:02.315Z,0.00
2024-02-12T00:41:02.292Z,0.00
2024-02-12T00:42:02.312Z,0.00
2024-02-12T00:43:02.242Z,0.00
2024-02-12T00:44:02.276Z,0.00
2024-02-12T00:45:02.294Z,0.00
2024-02-12T00:46:02.238Z,0.00
2024-02-12T00:47:02.260Z,0.00
2024-02-12T00:48:02.349Z,0.00
2024-02-12T00:49:02.304Z,0.00
2024-02-12T00:50:02.301Z,0.00
2024-02-12T00:51:11.530Z,0.00
2024-02-12T00:52:02.168Z,0.00
2024-02-12T00:53:02.123Z,0.00
2024-02-12T00:54:02.233Z,0.00
2024-02-12T00:55:02.138Z,0.00
2024-02-12T00:56:02.113Z,0.00
2024-02-12T00:57:02.089Z,0.00
2024-02-12T00:58:02.196Z,0.00
2024-02-12T00:59:02.121Z,0.00
2024-02-12T01:00:02.068Z,0.00
2024-02-12T01:01:02.083Z,0.00
2024-02-12T01:02:02.110Z,0.00
2024-02-12T01:03:02.032Z,0.00
2024-02-12T01:04:02.061Z,0.00
2024-02-12T01:05:02.179Z,0.00
2024-02-12T01:06:02.042Z,0.00
2024-02-12T01:07:01.964Z,0.00
2024-02-12T01:08:02.018Z,0.00
2024-02-12T01:09:01.997Z,0.00
2024-02-12T01:10:01.989Z,0.00
2024-02-12T01:11:01.967Z,0.00
2024-02-12T01:12:01.924Z,0.00
2024-02-12T01:13:01.944Z,0.00
2024-02-12T01:14:01.930Z,0.00
2024-02-12T01:15:01.942Z,0.00
2024-02-12T01:16:01.886Z,0.00
2024-02-12T01:17:01.927Z,0.00
2024-02-12T01:18:09.920Z,0.00
2024-02-12T01:19:02.895Z,0.00
2024-02-12T01:20:01.864Z,0.00
2024-02-12T01:21:01.800Z,0.00
2024-02-12T01:22:01.848Z,0.00
2024-02-12T01:23:01.844Z,0.00
2024-02-12T01:24:01.771Z,0.00
2024-02-12T01:25:01.788Z,0.00
2024-02-12T01:26:01.854Z,0.00
2024-02-12T01:27:01.794Z,0.00
2024-02-12T01:28:01.820Z,0.00
2024-02-12T01:29:01.751Z,0.00
2024-02-12T01:30:01.775Z,0.00
2024-02-12T01:31:01.725Z,0.00
2024-02-12T01:32:01.783Z,0.00
2024-02-12T01:33:01.815Z,0.00
2024-02-12T01:34:01.822Z,0.00
2024-02-12T01:35:01.675Z,0.00
2024-02-12T01:36:01.679Z,0.00
2024-02-12T01:37:01.650Z,0.00
2024-02-12T01:38:01.640Z,0.00
2024-02-12T01:39:01.608Z,0.00
2024-02-12T01:40:01.606Z,0.00
2024-02-12T01:41:01.701Z,0.00
2024-02-12T01:42:01.569Z,0.00
2024-02-12T01:43:01.545Z,0.00
2024-02-12T01:44:01.591Z,0.00
2024-02-12T01:45:01.600Z,0.00
2024-02-12T01:46:01.578Z,0.00
2024-02-12T01:47:05.803Z,0.00
2024-02-12T01:48:02.707Z,0.00
2024-02-12T01:49:01.553Z,0.00
2024-02-12T01:50:01.531Z,0.00
2024-02-12T01:51:01.488Z,0.00
2024-02-12T01:52:01.560Z,0.00
2024-02-12T01:53:01.483Z,0.00
2024-02-12T01:54:01.447Z,0.00
2024-02-12T01:55:01.446Z,0.00
2024-02-12T01:56:01.475Z,0.00
2024-02-12T01:57:01.426Z,0.00
2024-02-12T01:58:01.388Z,0.00
2024-02-12T01:59:01.553Z,0.00
2024-02-12T02:00:01.369Z,0.00
2024-02-12T02:01:01.440Z,0.00
2024-02-12T02:02:01.425Z,0.00
2024-02-12T02:03:01.324Z,0.00
2024-02-12T02:04:01.352Z,0.00
2024-02-12T02:05:01.376Z,0.00
2024-02-12T02:06:01.418Z,0.00
2024-02-12T02:07:01.334Z,0.00
2024-02-12T02:08:01.333Z,0.00
2024-02-12T02:09:01.248Z,0.00
2024-02-12T02:10:01.257Z,0.00
2024-02-12T02:11:01.274Z,0.00
2024-02-12T02:12:01.256Z,0.00
2024-02-12T02:13:01.413Z,0.00
2024-02-12T02:14:01.232Z,0.00
2024-02-12T02:15:01.198Z,0.00
2024-02-12T02:16:01.177Z,0.00
2024-02-12T02:17:01.200Z,0.00
2024-02-12T02:18:01.219Z,0.00
2024-02-12T02:19:01.300Z,0.00
2024-02-12T02:20:01.261Z,0.00
2024-02-12T02:21:01.133Z,0.00
2024-02-12T02:22:01.128Z,0.00
2024-02-12T02:23:03.108Z,0.00
2024-02-12T02:24:01.080Z,0.00
2024-02-12T02:25:01.187Z,0.00
2024-02-12T02:26:01.128Z,0.00
2024-02-12T02:27:01.054Z,0.00
2024-02-12T02:28:01.064Z,0.00
2024-02-12T02:29:01.186Z,0.00
2024-02-12T02:30:01.023Z,0.00
2024-02-12T02:31:01.002Z,0.00
2024-02-12T02:32:01.027Z,0.00
2024-02-12T02:33:01.184Z,0.00
2024-02-12T02:34:01.104Z,0.00
2024-02-12T02:35:00.972Z,0.00
2024-02-12T02:36:00.943Z,0.00
2024-02-12T02:37:00.943Z,0.00
2024-02-12T02:38:00.946Z,0.00
2024-02-12T02:39:01.033Z,0.00
2024-02-12T02:40:00.899Z,0.00
2024-02-12T02:41:01.067Z,0.00
2024-02-12T02:42:00.882Z,0.00
2024-02-12T02:43:00.894Z,0.00
2024-02-12T02:44:00.876Z,0.00
2024-02-12T02:45:00.906Z,0.00
2024-02-12T02:46:00.901Z,0.00
2024-02-12T02:47:00.839Z,0.00
2024-02-12T02:48:00.874Z,0.00
2024-02-12T02:49:00.898Z,0.00
2024-02-12T02:50:00.854Z,0.00
2024-02-12T02:51:00.778Z,0.00
2024-02-12T02:52:00.779Z,0.00
2024-02-12T02:53:00.789Z,0.00
2024-02-12T02:54:00.740Z,0.00
2024-02-12T02:55:00.739Z,0.00
2024-02-12T02:56:00.783Z,0.00
2024-02-12T02:57:00.708Z,0.00
2024-02-12T02:58:00.705Z,0.00
2024-02-12T02:59:00.763Z,0.00
2024-02-12T03:00:00.705Z,0.00
2024-02-12T03:01:00.693Z,0.00
2024-02-12T03:02:00.688Z,0.00
2024-02-12T03:03:00.682Z,0.00
2024-02-12T03:04:00.756Z,0.00
2024-02-12T03:05:00.676Z,0.00
2024-02-12T03:06:00.779Z,0.00
2024-02-12T03:07:00.581Z,0.00
2024-02-12T03:08:00.647Z,0.00
2024-02-12T03:09:00.566Z,0.00
2024-02-12T03:10:00.594Z,0.00
2024-02-12T03:11:00.615Z,0.00
2024-02-12T03:12:00.556Z,0.00
2024-02-12T03:13:00.662Z,0.00
2024-02-12T03:14:00.559Z,0.00
2024-02-12T03:15:00.499Z,0.00
2024-02-12T03:16:00.499Z,0.00
2024-02-12T03:17:00.548Z,0.00
2024-02-12T03:18:00.600Z,0.00
2024-02-12T03:19:00.585Z,0.00
2024-02-12T03:20:00.598Z,0.00
2024-02-12T03:21:00.506Z,0.00
2024-02-12T03:22:00.534Z,0.00
2024-02-12T03:23:00.457Z,0.00
2024-02-12T03:24:00.414Z,0.00
2024-02-12T03:25:00.404Z,0.00
2024-02-12T03:26:00.468Z,0.00
2024-02-12T03:27:00.388Z,0.00
2024-02-12T03:28:00.378Z,0.00
2024-02-12T03:29:00.391Z,0.00
2024-02-12T03:30:00.355Z,0.00
2024-02-12T03:31:00.439Z,0.00
2024-02-12T03:32:00.342Z,0.00
2024-02-12T03:33:00.363Z,0.00
2024-02-12T03:34:00.308Z,0.00
2024-02-12T03:35:00.293Z,0.00
2024-02-12T03:36:00.427Z,0.00
2024-02-12T03:37:00.251Z,0.00
2024-02-12T03:38:00.320Z,0.00
2024-02-12T03:39:00.237Z,0.00
2024-02-12T03:40:00.244Z,0.00
2024-02-12T03:41:00.249Z,0.00
2024-02-12T03:42:00.283Z,0.00
2024-02-12T03:43:00.180Z,0.00
2024-02-12T03:44:00.222Z,0.00
2024-02-12T03:45:00.180Z,0.00
2024-02-12T03:46:00.153Z,0.00
2024-02-12T03:47:00.166Z,0.00
2024-02-12T03:48:00.238Z,0.00
2024-02-12T03:49:00.239Z,0.00
2024-02-12T03:50:00.187Z,0.00
2024-02-12T03:51:00.111Z,0.00
2024-02-12T03:52:00.112Z,0.00
2024-02-12T03:53:00.103Z,0.00
2024-02-12T03:54:00.072Z,0.00
2024-02-12T03:55:02.246Z,0.00
2024-02-12T03:56:00.068Z,0.00
2024-02-12T03:57:00.064Z,0.00
2024-02-12T03:58:00.098Z,0.00
2024-02-12T03:59:00.144Z,0.00
2024-02-12T03:59:59.983Z,0.00
2024-02-12T04:01:00.005Z,0.00
2024-02-12T04:02:00.009Z,0.00
2024-02-12T04:03:00.023Z,0.00
2024-02-12T04:03:59.963Z,0.00
2024-02-12T04:04:59.945Z,0.00
2024-02-12T04:05:59.996Z,0.00
2024-02-12T04:06:59.901Z,0.00
2024-02-12T04:07:59.959Z,0.00
2024-02-12T04:08:59.902Z,0.00
2024-02-12T04:09:59.895Z,0.00
2024-02-12T04:10:59.897Z,0.00
2024-02-12T04:11:59.876Z,0.00
2024-02-12T04:12:59.970Z,0.00
2024-02-12T04:13:59.870Z,0.00
2024-02-12T04:14:59.803Z,0.00
2024-02-12T04:15:59.812Z,0.00
2024-02-12T04:16:59.818Z,0.00
2024-02-12T04:17:59.828Z,0.00
2024-02-12T04:18:59.867Z,0.00
2024-02-12T04:19:59.761Z,0.00
2024-02-12T04:20:59.785Z,0.00
2024-02-12T04:21:59.772Z,0.00
2024-02-12T04:22:59.774Z,0.00
2024-02-12T04:23:59.713Z,0.00
2024-02-12T04:24:59.692Z,0.00
2024-02-12T04:25:59.715Z,0.00
2024-02-12T04:26:59.686Z,0.00
2024-02-12T04:27:59.687Z,0.00
2024-02-12T04:28:59.677Z,0.00
2024-02-12T04:29:59.679Z,0.00
2024-02-12T04:30:59.640Z,0.00
2024-02-12T04:31:59.654Z,0.00
2024-02-12T04:32:59.758Z,0.00
2024-02-12T04:33:59.733Z,0.00
2024-02-12T04:34:59.621Z,0.00
2024-02-12T04:35:59.573Z,0.00
2024-02-12T04:36:59.565Z,0.00
2024-02-12T04:37:59.654Z,0.00
2024-02-12T04:38:59.561Z,0.00
2024-02-12T04:39:59.525Z,0.00
2024-02-12T04:40:59.545Z,0.00
2024-02-12T04:41:59.511Z,0.00
2024-02-12T04:42:59.498Z,0.00
2024-02-12T04:43:59.524Z,0.00
2024-02-12T04:44:59.476Z,0.00
2024-02-12T04:45:59.471Z,0.00
2024-02-12T04:46:59.471Z,0.00
2024-02-12T04:47:59.637Z,0.00
2024-02-12T04:48:59.525Z,0.00
2024-02-12T04:49:59.454Z,0.00
2024-02-12T04:50:59.408Z,0.00
2024-02-12T04:51:59.391Z,0.00
2024-02-12T04:52:59.391Z,0.00
2024-02-12T04:53:59.396Z,0.00
2024-02-12T04:54:59.357Z,0.00
2024-02-12T04:55:59.486Z,0.00
2024-02-12T04:56:59.325Z,0.00
2024-02-12T04:57:59.423Z,0.00
2024-02-12T04:58:59.415Z,0.00
2024-02-12T04:59:59.332Z,0.00
2024-02-12T05:00:59.312Z,0.00
2024-02-12T05:01:59.310Z,0.00
2024-02-12T05:02:59.257Z,0.00
2024-02-12T05:03:59.340Z,0.00
2024-02-12T05:04:59.285Z,0.00
2024-02-12T05:05:59.237Z,0.00
2024-02-12T05:06:59.265Z,0.00
2024-02-12T05:07:59.281Z,0.00
2024-02-12T05:09:02.032Z,0.00
2024-02-12T05:09:59.214Z,0.00
2024-02-12T05:10:59.235Z,0.00
2024-02-12T05:11:59.169Z,0.00
2024-02-12T05:12:59.229Z,0.00
2024-02-12T05:13:59.237Z,0.00
2024-02-12T05:14:59.159Z,0.00
2024-02-12T05:15:59.137Z,0.00
2024-02-12T05:16:59.133Z,0.00
2024-02-12T05:17:59.126Z,0.00
2024-02-12T05:18:59.120Z,0.00
2024-02-12T05:19:59.127Z,0.00
2024-02-12T05:20:59.059Z,0.00
2024-02-12T05:21:59.075Z,0.00
2024-02-12T05:22:59.092Z,0.00
2024-02-12T05:23:59.026Z,0.00
2024-02-12T05:24:59.037Z,0.00
2024-02-12T05:25:59.094Z,0.00
2024-02-12T05:26:59.052Z,0.00
2024-02-12T05:27:59.006Z,0.00
2024-02-12T05:28:58.977Z,0.00
2024-02-12T05:29:58.986Z,0.00
2024-02-12T05:30:58.964Z,0.00
2024-02-12T05:31:58.998Z,0.00
2024-02-12T05:32:59.027Z,0.00
2024-02-12T05:33:59.168Z,0.00
2024-02-12T05:34:59.059Z,0.00
2024-02-12T05:35:58.915Z,0.00
2024-02-12T05:36:58.879Z,0.00
2024-02-12T05:37:58.879Z,0.00
2024-02-12T05:38:58.848Z,0.00
2024-02-12T05:39:58.861Z,0.00
2024-02-12T05:40:58.892Z,0.00
2024-02-12T05:41:58.827Z,0.00
2024-02-12T05:42:58.844Z,0.00
2024-02-12T05:43:58.835Z,0.00
2024-02-12T05:44:58.792Z,0.00
2024-02-12T05:45:58.801Z,0.00
2024-02-12T05:46:58.852Z,0.00
2024-02-12T05:47:58.851Z,0.00
2024-02-12T05:48:58.774Z,0.00
2024-02-12T05:49:58.830Z,0.00
2024-02-12T05:50:58.860Z,0.00
2024-02-12T05:51:58.711Z,0.00
2024-02-12T05:52:58.749Z,0.00
2024-02-12T05:53:58.677Z,0.00
2024-02-12T05:54:58.673Z,0.00
2024-02-12T05:55:58.895Z,0.00
2024-02-12T05:56:58.681Z,0.00
2024-02-12T05:57:58.680Z,0.00
2024-02-12T05:58:58.664Z,0.00
2024-02-12T05:59:58.651Z,0.00
2024-02-12T06:00:58.742Z,0.00
2024-02-12T06:01:58.684Z,0.00
2024-02-12T06:02:58.653Z,4.00
2024-02-12T06:03:58.681Z,4.00
2024-02-12T06:04:58.750Z,0.00
2024-02-12T06:05:58.724Z,4.00
2024-02-12T06:06:58.669Z,4.00
2024-02-12T06:07:58.709Z,4.00
2024-02-12T06:08:58.628Z,4.00
2024-02-12T06:09:58.508Z,4.00
2024-02-12T06:10:58.561Z,8.00
2024-02-12T06:11:58.493Z,4.00
2024-02-12T06:12:58.512Z,4.00
2024-02-12T06:13:58.528Z,8.00
2024-02-12T06:14:58.437Z,4.00
2024-02-12T06:15:58.449Z,8.00
2024-02-12T06:16:58.634Z,12.00
2024-02-12T06:17:58.519Z,8.00
2024-02-12T06:18:58.454Z,12.00
2024-02-12T06:19:58.410Z,12.00
2024-02-12T06:20:58.438Z,16.00
2024-02-12T06:21:58.380Z,20.00
2024-02-12T06:22:58.490Z,24.00
2024-02-12T06:23:58.458Z,24.00
2024-02-12T06:24:58.373Z,28.00
2024-02-12T06:25:58.426Z,32.00
2024-02-12T06:26:58.306Z,28.00
2024-02-12T06:27:58.327Z,32.00
2024-02-12T06:28:58.377Z,36.00
2024-02-12T06:29:58.319Z,36.00
2024-02-12T06:30:58.277Z,36.00
2024-02-12T06:31:58.261Z,40.00
2024-02-12T06:32:58.391Z,40.00
2024-02-12T06:33:58.383Z,44.00
2024-02-12T06:34:58.294Z,52.00
2024-02-12T06:35:58.227Z,56.00
2024-02-12T06:36:58.284Z,64.00
2024-02-12T06:37:58.207Z,64.00
2024-02-12T06:38:58.183Z,64.00
2024-02-12T06:39:58.158Z,76.00
2024-02-12T06:40:58.182Z,76.00
2024-02-12T06:41:58.152Z,80.00
2024-02-12T06:42:58.165Z,88.00
2024-02-12T06:43:58.124Z,92.00
2024-02-12T06:44:58.128Z,96.00
2024-02-12T06:45:58.167Z,104.00
2024-02-12T06:46:58.078Z,120.00
2024-02-12T06:47:58.087Z,128.00
2024-02-12T06:48:58.171Z,136.00
2024-02-12T06:49:58.112Z,148.00
2024-02-12T06:50:58.425Z,164.00
2024-02-12T06:51:58.024Z,176.00
2024-02-12T06:52:58.014Z,184.00
2024-02-12T06:53:58.008Z,196.00
2024-02-12T06:54:58.116Z,220.00
2024-02-12T06:55:58.088Z,240.00
2024-02-12T06:56:57.955Z,252.00
2024-02-12T06:57:57.939Z,280.00
2024-02-12T06:58:57.986Z,320.00
2024-02-12T06:59:58.049Z,360.00
2024-02-12T07:00:58.025Z,392.00
2024-02-12T07:01:57.945Z,384.00
2024-02-12T07:02:57.916Z,416.00
2024-02-12T07:03:57.955Z,436.00
2024-02-12T07:04:57.903Z,356.00
2024-02-12T07:05:58.066Z,344.00
2024-02-12T07:06:57.904Z,336.00
2024-02-12T07:07:57.856Z,336.00
2024-02-12T07:08:57.811Z,340.00
2024-02-12T07:09:57.806Z,348.00
2024-02-12T07:10:57.867Z,340.00
2024-02-12T07:11:57.813Z,340.00
2024-02-12T07:12:57.834Z,340.00
2024-02-12T07:13:57.876Z,352.00
2024-02-12T07:14:57.762Z,360.00
2024-02-12T07:15:57.779Z,360.00
2024-02-12T07:16:57.770Z,368.00
2024-02-12T07:17:57.791Z,376.00
2024-02-12T07:18:57.775Z,388.00
2024-02-12T07:19:57.749Z,396.00
2024-02-12T07:20:57.733Z,400.00
2024-02-12T07:21:57.698Z,408.00
2024-02-12T07:22:57.696Z,420.00
2024-02-12T07:23:57.664Z,428.00
2024-02-12T07:24:57.645Z,444.00
2024-02-12T07:25:57.650Z,448.00
2024-02-12T07:26:57.677Z,452.00
2024-02-12T07:27:57.607Z,440.00
2024-02-12T07:28:57.619Z,448.00
2024-02-12T07:29:57.576Z,448.00
2024-02-12T07:30:57.616Z,420.00
2024-02-12T07:31:57.623Z,428.00
2024-02-12T07:32:57.659Z,464.00
2024-02-12T07:33:57.629Z,492.00
2024-02-12T07:34:57.573Z,548.00
2024-02-12T07:35:57.516Z,620.00
2024-02-12T07:36:57.556Z,684.00
2024-02-12T07:37:57.699Z,756.00
2024-02-12T07:38:57.611Z,928.00
2024-02-12T07:39:57.465Z,1000.00
2024-02-12T07:40:57.498Z,1036.00
2024-02-12T07:41:57.503Z,1060.00
2024-02-12T07:42:57.459Z,1072.00
2024-02-12T07:43:57.451Z,1080.00
2024-02-12T07:44:57.423Z,1032.00
2024-02-12T07:45:57.439Z,1008.00
2024-02-12T07:46:57.487Z,1052.00
2024-02-12T07:47:57.746Z,984.00
2024-02-12T07:48:57.475Z,844.00
2024-02-12T07:49:57.617Z,808.00
2024-02-12T07:50:57.355Z,732.00
2024-02-12T07:51:57.343Z,736.00
2024-02-12T07:52:57.384Z,804.00
2024-02-12T07:53:57.439Z,868.00
2024-02-12T07:54:57.299Z,896.00
2024-02-12T07:55:57.422Z,964.00
2024-02-12T07:56:57.274Z,868.00
2024-02-12T07:57:57.297Z,824.00
2024-02-12T07:58:57.418Z,764.00
2024-02-12T07:59:57.338Z,692.00
2024-02-12T08:00:57.340Z,660.00
2024-02-12T08:01:57.310Z,836.00
2024-02-12T08:02:57.322Z,1000.00
2024-02-12T08:03:57.311Z,1116.00
2024-02-12T08:04:57.260Z,1312.00
2024-02-12T08:05:57.163Z,1196.00
2024-02-12T08:06:57.280Z,1044.00
2024-02-12T08:08:03.166Z,1016.00
2024-02-12T08:08:58.175Z,980.00
2024-02-12T08:09:57.187Z,948.00
2024-02-12T08:10:57.270Z,924.00
2024-02-12T08:11:57.200Z,824.00
2024-02-12T08:12:57.123Z,832.00
2024-02-12T08:13:57.154Z,908.00
2024-02-12T08:14:57.085Z,944.00
2024-02-12T08:15:57.064Z,976.00
2024-02-12T08:16:57.113Z,1020.00
2024-02-12T08:17:57.125Z,1080.00
2024-02-12T08:18:57.051Z,1136.00
2024-02-12T08:19:57.192Z,924.00
2024-02-12T08:20:57.059Z,844.00
2024-02-12T08:21:56.996Z,832.00
2024-02-12T08:22:57.271Z,840.00
2024-02-12T08:23:57.006Z,860.00
2024-02-12T08:24:57.046Z,860.00
2024-02-12T08:25:57.049Z,876.00
2024-02-12T08:26:56.949Z,852.00
2024-02-12T08:27:56.938Z,868.00
2024-02-12T08:28:56.994Z,872.00
2024-02-12T08:29:56.986Z,860.00
2024-02-12T08:30:59.710Z,864.00
2024-02-12T08:31:57.914Z,908.00
2024-02-12T08:32:56.976Z,972.00
2024-02-12T08:33:56.912Z,1044.00
2024-02-12T08:34:56.950Z,1128.00
2024-02-12T08:35:56.900Z,1212.00
2024-02-12T08:36:56.817Z,1328.00
2024-02-12T08:37:56.942Z,1532.00
2024-02-12T08:38:56.821Z,1732.00
2024-02-12T08:39:56.823Z,1808.00
2024-02-12T08:40:56.842Z,1864.00
2024-02-12T08:41:56.780Z,1844.00
2024-02-12T08:42:56.766Z,1748.00
2024-02-12T08:43:56.810Z,1676.00
2024-02-12T08:44:59.933Z,1608.00
2024-02-12T08:45:56.729Z,1604.00
2024-02-12T08:46:56.792Z,1588.00
2024-02-12T08:47:56.785Z,1556.00
2024-02-12T08:48:56.697Z,1500.00
2024-02-12T08:49:56.788Z,1480.00
2024-02-12T08:50:56.808Z,1452.00
2024-02-12T08:51:56.622Z,1420.00
2024-02-12T08:52:56.660Z,1404.00
2024-02-12T08:54:00.036Z,1428.00
2024-02-12T08:54:56.650Z,1556.00
2024-02-12T08:55:56.652Z,1448.00
2024-02-12T08:56:56.634Z,1400.00
2024-02-12T08:57:56.604Z,1440.00
2024-02-12T08:58:56.698Z,1472.00
2024-02-12T08:59:56.591Z,1536.00
2024-02-12T09:00:56.627Z,1668.00
2024-02-12T09:01:56.553Z,1752.00
2024-02-12T09:02:56.642Z,1708.00
2024-02-12T09:03:56.668Z,1564.00
2024-02-12T09:04:56.547Z,1284.00
2024-02-12T09:05:56.590Z,1032.00
2024-02-12T09:06:56.496Z,1088.00
2024-02-12T09:07:56.492Z,1140.00
2024-02-12T09:08:56.494Z,1228.00
2024-02-12T09:09:56.422Z,1216.00
2024-02-12T09:10:56.427Z,1272.00
2024-02-12T09:11:56.619Z,1324.00
2024-02-12T09:12:56.424Z,1308.00
2024-02-12T09:13:56.622Z,1356.00
2024-02-12T09:14:56.391Z,1448.00
2024-02-12T09:15:56.395Z,1424.00
2024-02-12T09:16:56.448Z,1380.00
2024-02-12T09:17:56.591Z,1612.00
2024-02-12T09:18:56.383Z,1828.00
2024-02-12T09:19:56.369Z,2076.00
2024-02-12T09:20:56.318Z,1940.00
2024-02-12T09:21:56.336Z,1964.00
2024-02-12T09:22:56.534Z,2020.00
2024-02-12T09:23:56.321Z,1916.00
2024-02-12T09:27:06.874Z,1932.00
2024-02-12T09:29:25.386Z,2060.00
2024-02-12T09:30:24.960Z,2072.00
2024-02-12T09:31:25.040Z,2144.00
2024-02-12T09:32:25.048Z,2240.00
2024-02-12T09:33:25.023Z,2168.00
2024-02-12T09:34:34.562Z,2228.00
2024-02-12T09:35:25.169Z,1924.00
2024-02-12T09:36:32.578Z,1836.00
2024-02-12T09:37:24.940Z,1596.00
2024-02-12T09:38:25.039Z,1644.00
2024-02-12T09:39:25.058Z,1512.00
2024-02-12T09:40:24.956Z,1304.00
2024-02-12T09:41:24.855Z,1252.00
2024-02-12T09:42:24.735Z,1380.00
2024-02-12T09:43:24.824Z,1420.00
2024-02-12T09:44:24.819Z,1456.00
2024-02-12T09:45:24.801Z,1504.00
2024-02-12T09:46:24.710Z,1660.00
2024-02-12T09:47:24.783Z,1572.00
2024-02-12T09:48:24.740Z,1672.00
2024-02-12T09:49:24.773Z,1764.00
2024-02-12T09:50:24.774Z,1684.00
2024-02-12T09:51:24.678Z,1720.00
2024-02-12T09:52:24.662Z,1696.00
2024-02-12T09:53:24.808Z,1708.00
2024-02-12T09:54:24.616Z,1560.00
2024-02-12T09:55:24.653Z,1320.00
2024-02-12T09:56:24.656Z,1156.00
2024-02-12T09:57:24.585Z,1176.00
2024-02-12T09:58:24.550Z,1132.00
2024-02-12T09:59:24.672Z,1280.00
2024-02-12T10:00:24.557Z,1112.00
2024-02-12T10:01:24.704Z,1176.00
2024-02-12T10:02:24.682Z,1392.00
2024-02-12T10:03:24.508Z,1244.00
2024-02-12T10:04:24.499Z,940.00
2024-02-12T10:05:24.894Z,1008.00
2024-02-12T10:06:24.573Z,1044.00
2024-02-12T10:07:24.495Z,1124.00
2024-02-12T10:08:24.458Z,1172.00
2024-02-12T10:09:24.482Z,1196.00
2024-02-12T10:10:24.428Z,1132.00
2024-02-12T10:11:24.453Z,1244.00
2024-02-12T10:12:24.492Z,1228.00
2024-02-12T10:13:24.402Z,1368.00
2024-02-12T10:14:24.496Z,1516.00
2024-02-12T10:15:24.413Z,1484.00
2024-02-12T10:16:24.369Z,1456.00
2024-02-12T10:17:24.479Z,1476.00
2024-02-12T10:18:24.476Z,1448.00
2024-02-12T10:19:24.358Z,1384.00
2024-02-12T10:20:24.326Z,1332.00
2024-02-12T10:21:24.370Z,1460.00
2024-02-12T10:22:24.281Z,1728.00
2024-02-12T10:23:24.338Z,1636.00
2024-02-12T10:24:24.297Z,1772.00
2024-02-12T10:25:24.257Z,1720.00
2024-02-12T10:26:24.315Z,1788.00
2024-02-12T10:27:24.242Z,1912.00
2024-02-12T10:28:24.272Z,2036.00
2024-02-12T10:29:24.235Z,2012.00
2024-02-12T10:30:24.190Z,2032.00
2024-02-12T10:31:24.182Z,1976.00
2024-02-12T10:32:24.245Z,1932.00
2024-02-12T10:33:24.341Z,1912.00
2024-02-12T10:34:24.289Z,2016.00
2024-02-12T10:35:24.530Z,2208.00
2024-02-12T10:36:24.150Z,2312.00
2024-02-12T10:37:24.113Z,2420.00
2024-02-12T10:38:24.121Z,2532.00
2024-02-12T10:39:24.165Z,2356.00
2024-02-12T10:40:24.086Z,2264.00
2024-02-12T10:41:24.174Z,2248.00
2024-02-12T10:42:24.244Z,2228.00
2024-02-12T10:43:24.062Z,2188.00
2024-02-12T10:44:24.073Z,2304.00
2024-02-12T10:45:24.023Z,2116.00
2024-02-12T10:46:24.014Z,1816.00
2024-02-12T10:47:24.076Z,1500.00
2024-02-12T10:48:24.074Z,1480.00
2024-02-12T10:49:24.145Z,1432.00
2024-02-12T10:50:23.975Z,1332.00
2024-02-12T10:51:23.972Z,1340.00
2024-02-12T10:52:23.950Z,1540.00
2024-02-12T10:53:23.950Z,1616.00
2024-02-12T10:54:23.993Z,1484.00
2024-02-12T10:55:23.921Z,1492.00
2024-02-12T10:56:24.036Z,1632.00
2024-02-12T10:57:23.923Z,1792.00
2024-02-12T10:58:23.873Z,1824.00
2024-02-12T10:59:23.868Z,1776.00
2024-02-12T11:00:23.889Z,1788.00
2024-02-12T11:01:23.909Z,1920.00
2024-02-12T11:02:23.845Z,1968.00
2024-02-12T11:03:23.825Z,1920.00
2024-02-12T11:04:23.863Z,1860.00
2024-02-12T11:05:23.856Z,1692.00
2024-02-12T11:06:23.844Z,1540.00
2024-02-12T11:07:23.773Z,1488.00
2024-02-12T11:08:23.946Z,1468.00
2024-02-12T11:09:23.946Z,1404.00
2024-02-12T11:10:23.791Z,1344.00
2024-02-12T11:11:23.884Z,1328.00
2024-02-12T11:12:23.758Z,1384.00
2024-02-12T11:13:23.714Z,1428.00
2024-02-12T11:14:23.710Z,1424.00
2024-02-12T11:15:23.708Z,1472.00
2024-02-12T11:16:23.723Z,1516.00
2024-02-12T11:17:23.775Z,1668.00
2024-02-12T11:18:23.844Z,1728.00
2024-02-12T11:19:25.060Z,1708.00
2024-02-12T11:20:23.662Z,1632.00
2024-02-12T11:21:24.079Z,1560.00
2024-02-12T11:22:23.715Z,1524.00
2024-02-12T11:23:23.816Z,1460.00
2024-02-12T11:24:23.645Z,1388.00
2024-02-12T11:25:24.071Z,1444.00
2024-02-12T11:26:23.631Z,1544.00
2024-02-12T11:27:23.572Z,1568.00
2024-02-12T11:28:23.551Z,1592.00
2024-02-12T11:29:23.576Z,1656.00
2024-02-12T11:30:23.582Z,1744.00
2024-02-12T11:31:23.522Z,1632.00
2024-02-12T11:32:23.832Z,1528.00
2024-02-12T11:33:23.601Z,1332.00
2024-02-12T11:34:23.558Z,1136.00
2024-02-12T11:35:23.668Z,1000.00
2024-02-12T11:36:23.579Z,872.00
2024-02-12T11:37:23.460Z,784.00
2024-02-12T11:38:23.491Z,696.00
2024-02-12T11:39:23.466Z,600.00
2024-02-12T11:40:23.463Z,544.00
2024-02-12T11:41:23.419Z,532.00
2024-02-12T11:42:23.386Z,508.00
2024-02-12T11:43:23.392Z,524.00
2024-02-12T11:44:23.397Z,556.00
2024-02-12T11:45:23.508Z,576.00
2024-02-12T11:46:23.382Z,600.00
2024-02-12T11:47:23.392Z,624.00
2024-02-12T11:48:23.375Z,640.00
2024-02-12T11:49:23.441Z,652.00
2024-02-12T11:50:23.350Z,696.00
2024-02-12T11:51:23.317Z,808.00
2024-02-12T11:52:23.295Z,888.00
2024-02-12T11:53:23.370Z,872.00
2024-02-12T11:54:23.357Z,864.00
2024-02-12T11:55:23.437Z,956.00
2024-02-12T11:56:23.559Z,1120.00
2024-02-12T11:57:23.303Z,1108.00
2024-02-12T11:58:23.207Z,1136.00
2024-02-12T11:59:23.847Z,1200.00
2024-02-12T12:00:23.258Z,1164.00
2024-02-12T12:01:23.267Z,1052.00
2024-02-12T12:02:23.177Z,972.00
2024-02-12T12:03:23.196Z,760.00
2024-02-12T12:04:23.238Z,768.00
2024-02-12T12:05:23.301Z,944.00
2024-02-12T12:06:23.357Z,928.00
2024-02-12T12:07:23.147Z,844.00
2024-02-12T12:08:23.164Z,660.00
2024-02-12T12:09:23.206Z,544.00
2024-02-12T12:10:23.090Z,400.00
2024-02-12T12:11:23.141Z,364.00
2024-02-12T12:12:23.048Z,360.00
2024-02-12T12:13:23.068Z,348.00
2024-02-12T12:14:23.106Z,320.00
2024-02-12T12:15:23.121Z,308.00
2024-02-12T12:16:23.095Z,308.00
2024-02-12T12:17:30.646Z,352.00
2024-02-12T12:18:24.158Z,380.00
2024-02-12T12:19:23.122Z,400.00
2024-02-12T12:20:23.108Z,412.00
2024-02-12T12:21:23.030Z,424.00
2024-02-12T12:22:23.028Z,428.00
2024-02-12T12:23:22.985Z,456.00
2024-02-12T12:24:22.946Z,484.00
2024-02-12T12:25:23.053Z,480.00
2024-02-12T12:26:22.958Z,560.00
2024-02-12T12:27:22.893Z,644.00
2024-02-12T12:28:22.870Z,744.00
2024-02-12T12:29:27.897Z,852.00
2024-02-12T12:30:23.990Z,972.00
2024-02-12T12:31:22.884Z,1072.00
2024-02-12T12:32:23.009Z,1160.00
2024-02-12T12:33:22.886Z,1264.00
2024-02-12T12:34:22.913Z,1352.00
2024-02-12T12:35:23.034Z,1376.00
2024-02-12T12:36:22.818Z,1376.00
2024-02-12T12:37:22.771Z,1424.00
2024-02-12T12:38:22.831Z,1484.00
2024-02-12T12:39:22.816Z,1464.00
2024-02-12T12:40:22.850Z,1436.00
2024-02-12T12:41:22.925Z,1436.00
2024-02-12T12:42:22.736Z,1444.00
2024-02-12T12:43:22.836Z,1420.00
2024-02-12T12:44:22.780Z,1408.00
2024-02-12T12:45:22.953Z,1400.00
2024-02-12T12:46:22.810Z,1340.00
2024-02-12T12:47:22.698Z,1296.00
2024-02-12T12:48:22.843Z,1276.00
2024-02-12T12:49:24.258Z,1300.00